Time;durP1;ratioP1;P1;durP2;ratioP2;P2;SDS_P1;SDS_P2;PMS_P1;PMS_P2;Temp;Humidity;BMP_temperature;BMP_pressure;BME280_temperature;BME280_humidity;BME280_pressure;Samples;Min_cycle;Max_cycle;Signal;HPM_P1;HPM_P2
2023/12/23 00:01:58;;;;;;;12.43;2.88;;;10.00;99.90;;;;;;4265136;27;20047;-64
2023/12/23 00:04:01;;;;;;;11.07;2.58;;;10.00;99.90;;;;;;4265036;27;20050;-65
2023/12/23 00:06:04;;;;;;;13.70;2.65;;;10.00;99.90;;;;;;4265286;27;20070;-65
2023/12/23 00:08:06;;;;;;;16.90;4.18;;;10.00;99.90;;;;;;4264855;27;20462;-65
2023/12/23 00:10:08;;;;;;;12.13;3.80;;;10.10;99.90;;;;;;4246819;27;20043;-64
2023/12/23 00:12:10;;;;;;;11.45;2.53;;;10.10;99.90;;;;;;4265154;27;20042;-64
2023/12/23 00:14:12;;;;;;;10.65;2.78;;;10.10;99.90;;;;;;4265053;27;20072;-64
2023/12/23 00:16:16;;;;;;;12.68;3.90;;;10.10;99.90;;;;;;4264982;27;20536;-64
2023/12/23 00:18:18;;;;;;;14.07;4.00;;;10.20;99.90;;;;;;4264849;27;20524;-65
2023/12/23 00:20:20;;;;;;;12.10;2.83;;;10.20;99.90;;;;;;4264741;27;20481;-65
2023/12/23 00:22:24;;;;;;;11.27;3.42;;;10.10;99.90;;;;;;4264929;27;20042;-65
2023/12/23 00:24:29;;;;;;;13.50;3.30;;;10.10;99.90;;;;;;4264856;27;20493;-65
2023/12/23 00:26:31;;;;;;;;;;;10.20;99.90;;;;;;4265034;27;20039;-65
2023/12/23 00:28:33;;;;;;;13.07;3.42;;;10.20;99.90;;;;;;4264933;27;19919;-65
2023/12/23 00:30:35;;;;;;;12.77;3.05;;;10.10;99.90;;;;;;4264510;27;20096;-65
2023/12/23 00:32:40;;;;;;;14.30;3.55;;;10.20;99.90;;;;;;4264896;27;20512;-66
2023/12/23 00:34:42;;;;;;;14.13;2.60;;;10.10;99.90;;;;;;4264962;27;20046;-65
2023/12/23 00:36:44;;;;;;;12.35;2.90;;;10.10;99.90;;;;;;4264734;27;20055;-66
2023/12/23 00:38:46;;;;;;;10.52;2.45;;;10.10;99.90;;;;;;4265039;27;20046;-65
2023/12/23 00:40:48;;;;;;;9.30;2.60;;;10.10;99.90;;;;;;4264681;27;20486;-65
2023/12/23 00:42:51;;;;;;;11.90;2.30;;;10.00;99.90;;;;;;4264928;27;20054;-66
2023/12/23 00:44:53;;;;;;;9.07;3.63;;;10.10;99.90;;;;;;4265616;27;20507;-69
2023/12/23 00:46:55;;;;;;;10.70;3.15;;;10.10;99.90;;;;;;4269702;27;20337;-69
2023/12/23 00:48:59;;;;;;;9.45;4.47;;;10.10;99.90;;;;;;4270708;27;20401;-69
2023/12/23 00:51:01;;;;;;;11.80;3.28;;;10.10;99.90;;;;;;4269532;27;20068;-65
2023/12/23 00:53:04;;;;;;;11.50;3.03;;;10.10;99.90;;;;;;4268627;27;20077;-67
2023/12/23 00:55:06;;;;;;;11.55;3.05;;;10.10;99.90;;;;;;4267963;27;20034;-70
2023/12/23 00:57:08;;;;;;;8.48;2.28;;;10.10;99.90;;;;;;4268130;27;20046;-65
2023/12/23 00:59:10;;;;;;;10.43;2.17;;;10.10;99.90;;;;;;4267867;27;20435;-66
2023/12/23 01:01:12;;;;;;;11.65;2.88;;;10.10;99.90;;;;;;4268010;27;20466;-65
2023/12/23 01:03:15;;;;;;;13.05;2.17;;;10.10;99.90;;;;;;4267609;27;20088;-66
2023/12/23 01:05:18;;;;;;;10.85;2.65;;;10.10;99.90;;;;;;4267882;27;20047;-65
2023/12/23 01:07:21;;;;;;;8.10;2.13;;;10.10;99.90;;;;;;4267551;27;20409;-65
2023/12/23 01:09:23;;;;;;;10.98;2.88;;;10.20;99.90;;;;;;4267469;27;20043;-65
2023/12/23 01:11:25;;;;;;;11.70;2.88;;;10.20;99.90;;;;;;4267605;27;20034;-65
2023/12/23 01:13:28;;;;;;;10.88;3.55;;;10.20;99.90;;;;;;4267557;27;20462;-65
2023/12/23 01:15:31;;;;;;;14.48;7.63;;;10.20;99.90;;;;;;4267423;27;20042;-65
2023/12/23 01:17:33;;;;;;;12.02;4.05;;;10.30;99.90;;;;;;4267413;27;20065;-65
2023/12/23 01:19:35;;;;;;;16.48;6.25;;;10.30;99.90;;;;;;4249029;27;20050;-65
2023/12/23 01:21:38;;;;;;;12.05;3.78;;;10.20;99.90;;;;;;4267289;27;20091;-65
2023/12/23 01:23:40;;;;;;;12.52;2.85;;;10.20;99.90;;;;;;4266821;27;20063;-65
2023/12/23 01:25:43;;;;;;;9.93;4.00;;;10.20;99.90;;;;;;4267541;27;20042;-65
2023/12/23 01:27:46;;;;;;;14.73;3.50;;;10.30;99.90;;;;;;4267378;27;20043;-66
2023/12/23 01:29:50;;;;;;;10.10;1.75;;;10.20;99.90;;;;;;4267375;27;20474;-65
2023/12/23 01:31:52;;;;;;;9.75;2.60;;;10.20;99.90;;;;;;4267272;27;20050;-66
2023/12/23 01:33:54;;;;;;;11.50;2.42;;;10.20;99.90;;;;;;4267248;27;20066;-65
2023/12/23 01:35:57;;;;;;;14.27;2.55;;;10.20;99.90;;;;;;4267156;27;20070;-66
2023/12/23 01:38:00;;;;;;;11.15;3.17;;;10.10;99.90;;;;;;4266841;27;20046;-66
2023/12/23 01:40:07;;;;;;;9.90;2.20;;;10.20;99.90;;;;;;4267108;27;20054;-66
2023/12/23 01:42:09;;;;;;;8.20;2.60;;;10.10;99.90;;;;;;4267132;27;20074;-66
2023/12/23 01:44:11;;;;;;;11.25;2.15;;;10.20;99.90;;;;;;4267940;27;20554;-67
2023/12/23 01:46:13;;;;;;;13.40;2.20;;;10.20;99.90;;;;;;4268297;27;20436;-66
2023/12/23 01:48:22;;;;;;;8.65;2.70;;;10.20;99.90;;;;;;4267763;27;20047;-65
2023/12/23 01:50:25;;;;;;;7.22;1.70;;;10.20;99.90;;;;;;4266962;27;20047;-65
2023/12/23 01:52:28;;;;;;;9.57;2.50;;;10.10;99.90;;;;;;4266421;27;20510;-66
2023/12/23 01:54:32;;;;;;;13.48;3.50;;;10.10;99.90;;;;;;4266985;27;20047;-66
2023/12/23 01:56:34;;;;;;;15.80;3.08;;;10.10;99.90;;;;;;4266848;27;20500;-66
2023/12/23 01:58:37;;;;;;;9.15;3.08;;;10.10;99.90;;;;;;4266838;27;20070;-66
2023/12/23 02:00:39;;;;;;;11.65;2.30;;;10.00;99.90;;;;;;4266627;27;20601;-66
2023/12/23 02:02:41;;;;;;;10.05;2.28;;;10.00;99.90;;;;;;4266840;27;20043;-66
2023/12/23 02:04:44;;;;;;;9.63;2.30;;;10.10;99.90;;;;;;4266558;27;20039;-66
2023/12/23 02:06:46;;;;;;;12.25;2.75;;;10.20;99.90;;;;;;4267031;27;20498;-66
2023/12/23 02:08:48;;;;;;;14.25;2.72;;;10.10;99.90;;;;;;4266312;27;20508;-65
2023/12/23 02:11:02;;;;;;;9.35;2.00;;;10.20;99.90;;;;;;4266387;27;20099;-65
2023/12/23 02:13:11;;;;;;;8.70;2.55;;;10.20;99.90;;;;;;4266443;27;20406;-65
2023/12/23 02:15:15;;;;;;;12.98;2.60;;;10.30;99.90;;;;;;4266438;27;20043;-65
2023/12/23 02:17:18;;;;;;;7.35;1.85;;;10.30;99.90;;;;;;4266502;27;20125;-65
2023/12/23 02:19:20;;;;;;;6.57;2.13;;;10.20;99.90;;;;;;4266433;27;20558;-64
2023/12/23 02:21:23;;;;;;;11.63;2.40;;;10.20;99.90;;;;;;4266068;27;20050;-65
2023/12/23 02:23:25;;;;;;;9.10;2.95;;;10.30;99.90;;;;;;4266400;27;20404;-65
2023/12/23 02:25:28;;;;;;;6.63;1.95;;;10.30;99.90;;;;;;4266446;27;20407;-64
2023/12/23 02:27:36;;;;;;;8.93;2.35;;;10.20;99.90;;;;;;4266933;27;20070;-67
2023/12/23 02:29:40;;;;;;;7.50;2.08;;;10.30;99.90;;;;;;4267272;27;20042;-64
2023/12/23 02:31:43;;;;;;;12.75;2.65;;;10.30;99.90;;;;;;4266671;27;20039;-65
2023/12/23 02:33:47;;;;;;;8.20;2.13;;;10.30;99.90;;;;;;4266147;27;20126;-66
2023/12/23 02:35:52;;;;;;;9.52;2.28;;;10.30;99.90;;;;;;4266069;27;20486;-66
2023/12/23 02:37:56;;;;;;;11.70;2.40;;;10.40;99.90;;;;;;4266053;27;20463;-66
2023/12/23 02:39:59;;;;;;;7.60;1.75;;;10.40;99.90;;;;;;4266462;27;20549;-65
2023/12/23 02:42:01;;;;;;;6.82;1.55;;;10.30;99.90;;;;;;4266546;27;20485;-65
2023/12/23 02:44:03;;;;;;;6.60;2.03;;;10.30;99.90;;;;;;4267969;27;20043;-67
2023/12/23 02:46:05;;;;;;;5.55;1.85;;;10.40;99.90;;;;;;4267160;27;20066;-66
2023/12/23 02:48:07;;;;;;;5.65;1.63;;;10.30;99.90;;;;;;4266286;27;20070;-66
2023/12/23 02:50:10;;;;;;;9.43;2.08;;;10.40;99.90;;;;;;4265834;27;20046;-65
2023/12/23 02:52:12;;;;;;;8.20;2.03;;;10.30;99.90;;;;;;4265920;27;20490;-65
2023/12/23 02:54:15;;;;;;;8.48;2.08;;;10.40;99.90;;;;;;4267165;27;20039;-66
2023/12/23 02:56:17;;;;;;;8.13;2.33;;;10.40;99.90;;;;;;4267868;27;20062;-65
2023/12/23 02:58:20;;;;;;;7.22;2.00;;;10.40;99.90;;;;;;4267674;27;20070;-65
2023/12/23 03:00:21;;;;;;;8.13;2.00;;;10.40;99.90;;;;;;4266458;27;20046;-65
2023/12/23 03:02:24;;;;;;;6.65;1.95;;;10.50;99.90;;;;;;4266165;27;20383;-65
2023/12/23 03:04:28;;;;;;;9.52;2.03;;;10.40;99.90;;;;;;4265758;27;20043;-66
2023/12/23 03:06:30;;;;;;;6.78;2.05;;;10.50;99.90;;;;;;4265696;27;20077;-65
2023/12/23 03:08:32;;;;;;;11.02;3.25;;;10.50;99.90;;;;;;4265553;27;20123;-68
2023/12/23 03:10:38;;;;;;;13.32;2.85;;;10.40;99.90;;;;;;4265970;27;20043;-65
2023/12/23 03:12:40;;;;;;;7.80;2.55;;;10.40;99.90;;;;;;4265471;27;20047;-65
2023/12/23 03:14:43;;;;;;;10.57;2.40;;;10.40;99.90;;;;;;4265746;27;20047;-66
2023/12/23 03:16:44;;;;;;;7.18;1.75;;;10.40;99.90;;;;;;4265710;27;20397;-66
2023/12/23 03:18:47;;;;;;;8.32;2.28;;;10.40;99.90;;;;;;4265631;27;20042;-65
2023/12/23 03:20:50;;;;;;;6.82;1.90;;;10.40;99.90;;;;;;4264938;27;20077;-65
2023/12/23 03:22:52;;;;;;;8.25;2.13;;;10.40;99.90;;;;;;4265412;27;20409;-65
2023/12/23 03:24:54;;;;;;;5.32;1.52;;;10.40;99.90;;;;;;4265492;27;20046;-65
2023/12/23 03:26:58;;;;;;;8.13;1.80;;;10.40;99.90;;;;;;4265579;27;20043;-66
2023/12/23 03:29:00;;;;;;;7.03;2.47;;;10.40;99.90;;;;;;4265452;27;20460;-65
2023/12/23 03:31:02;;;;;;;10.43;1.85;;;10.40;99.90;;;;;;4265269;27;20526;-65
2023/12/23 03:33:04;;;;;;;8.45;2.05;;;10.40;99.90;;;;;;4265268;27;20354;-65
2023/12/23 03:35:07;;;;;;;8.88;3.13;;;10.40;99.90;;;;;;4265064;27;20042;-65
2023/12/23 03:37:09;;;;;;;5.75;1.85;;;10.40;99.90;;;;;;4265068;27;20075;-64
2023/12/23 03:39:11;;;;;;;7.00;1.75;;;10.40;99.90;;;;;;4265050;27;20078;-65
2023/12/23 03:41:13;;;;;;;8.43;1.85;;;10.30;99.90;;;;;;4265023;27;20070;-65
2023/12/23 03:43:17;;;;;;;11.75;2.25;;;10.40;99.90;;;;;;4265088;27;20099;-65
2023/12/23 03:45:19;;;;;;;7.07;1.75;;;10.40;99.90;;;;;;4246820;27;20074;-65
2023/12/23 03:47:21;;;;;;;6.53;1.30;;;10.40;99.90;;;;;;4265042;27;20043;-66
2023/12/23 03:49:23;;;;;;;12.10;1.85;;;10.40;99.90;;;;;;4265027;27;20039;-65
2023/12/23 03:51:25;;;;;;;7.50;1.50;;;10.40;99.90;;;;;;4264946;27;20050;-65
2023/12/23 03:53:27;;;;;;;6.38;1.45;;;10.40;99.90;;;;;;4265225;27;20046;-65
2023/12/23 03:55:32;;;;;;;5.45;1.80;;;10.40;99.90;;;;;;4265028;27;20039;-66
2023/12/23 03:57:34;;;;;;;6.93;1.67;;;10.40;99.90;;;;;;4265257;27;20046;-65
2023/12/23 03:59:38;;;;;;;6.65;1.30;;;10.40;99.90;;;;;;4265136;27;20534;-66
2023/12/23 04:01:42;;;;;;;6.93;2.38;;;10.40;99.90;;;;;;4264979;27;20070;-66
2023/12/23 04:03:45;;;;;;;11.30;2.38;;;10.40;99.90;;;;;;4264480;27;20042;-65
2023/12/23 04:05:47;;;;;;;7.22;1.90;;;10.40;99.90;;;;;;4246639;28;20043;-65
2023/12/23 04:07:50;;;;;;;4.53;1.50;;;10.30;99.90;;;;;;4265157;27;20431;-66
2023/12/23 04:09:52;;;;;;;6.68;1.88;;;10.40;99.90;;;;;;4264780;27;20070;-65
2023/12/23 04:11:54;;;;;;;6.90;1.80;;;10.30;99.90;;;;;;4265107;27;20078;-64
2023/12/23 04:13:56;;;;;;;8.45;2.20;;;10.40;99.90;;;;;;4265018;27;20477;-65
2023/12/23 04:16:02;;;;;;;8.80;1.80;;;10.30;99.90;;;;;;4264927;27;20050;-65
2023/12/23 04:18:05;;;;;;;5.78;1.65;;;10.30;99.90;;;;;;4246264;27;20460;-64
2023/12/23 04:20:08;;;;;;;6.88;2.38;;;10.30;99.90;;;;;;4265585;27;20125;-64
2023/12/23 04:22:10;;;;;;;8.23;3.33;;;10.20;99.90;;;;;;4268548;27;20130;-65
2023/12/23 04:24:12;;;;;;;5.65;1.92;;;10.30;99.90;;;;;;4268180;27;20038;-65
2023/12/23 04:26:15;;;;;;;4.68;1.27;;;10.30;99.90;;;;;;4268204;27;20045;-65
2023/12/23 04:28:24;;;;;;;5.97;1.83;;;10.30;99.90;;;;;;4268232;27;20050;-65
2023/12/23 04:30:26;;;;;;;5.38;0.90;;;10.30;99.90;;;;;;4268371;27;20038;-66
2023/12/23 04:32:30;;;;;;;6.25;1.45;;;10.40;99.90;;;;;;4268530;27;20043;-66
2023/12/23 04:34:32;;;;;;;6.25;2.55;;;10.30;99.90;;;;;;4268943;27;20485;-65
2023/12/23 04:36:34;;;;;;;6.60;1.70;;;10.30;99.90;;;;;;4269851;27;20054;-67
2023/12/23 04:38:36;;;;;;;3.17;1.08;;;10.30;99.90;;;;;;4269371;27;20042;-65
2023/12/23 04:40:38;;;;;;;7.68;1.70;;;10.30;99.90;;;;;;4249899;27;20071;-65
2023/12/23 04:42:40;;;;;;;6.68;1.85;;;10.20;99.90;;;;;;4249716;27;20057;-65
2023/12/23 04:44:42;;;;;;;5.40;1.40;;;10.30;99.90;;;;;;4267879;27;20405;-64
2023/12/23 04:46:46;;;;;;;8.82;3.40;;;10.30;99.90;;;;;;4267535;27;20054;-64
2023/12/23 04:48:49;;;;;;;6.60;2.00;;;10.30;99.90;;;;;;4268155;27;20485;-67
2023/12/23 04:50:51;;;;;;;6.82;2.10;;;10.30;99.90;;;;;;4267777;27;20050;-64
2023/12/23 04:52:54;;;;;;;4.63;2.38;;;10.20;99.90;;;;;;4267788;27;20058;-64
2023/12/23 04:54:58;;;;;;;5.18;2.03;;;10.30;99.90;;;;;;4267745;27;20034;-64
2023/12/23 04:57:00;;;;;;;7.00;2.78;;;10.30;99.90;;;;;;4267953;27;20130;-65
2023/12/23 04:59:02;;;;;;;7.63;2.42;;;10.30;99.90;;;;;;4267898;27;20097;-65
2023/12/23 05:01:05;;;;;;;6.88;1.42;;;10.30;99.90;;;;;;4267477;27;20046;-64
2023/12/23 05:03:08;;;;;;;6.18;1.40;;;10.30;99.90;;;;;;4267600;27;20439;-65
2023/12/23 05:05:11;;;;;;;5.97;1.88;;;10.20;99.90;;;;;;4267720;27;20495;-64
2023/12/23 05:07:13;;;;;;;5.03;1.60;;;10.30;99.90;;;;;;4267589;27;20546;-65
2023/12/23 05:09:15;;;;;;;7.25;1.85;;;10.30;99.90;;;;;;4267584;27;20117;-65
2023/12/23 05:11:17;;;;;;;6.57;1.58;;;10.30;99.90;;;;;;4267621;27;20142;-65
2023/12/23 05:13:19;;;;;;;5.28;1.58;;;10.30;99.90;;;;;;4267505;27;20092;-65
2023/12/23 05:15:21;;;;;;;6.63;2.00;;;10.30;99.90;;;;;;4267211;27;20081;-65
2023/12/23 05:17:24;;;;;;;9.98;1.90;;;10.30;99.90;;;;;;4268754;27;20070;-65
2023/12/23 05:19:26;;;;;;;7.63;2.70;;;10.30;99.90;;;;;;4269701;27;20371;-68
2023/12/23 05:21:30;;;;;;;9.40;2.33;;;10.30;99.90;;;;;;4269063;27;20042;-65
2023/12/23 05:23:32;;;;;;;6.80;2.72;;;10.30;99.90;;;;;;4268789;27;20049;-65
2023/12/23 05:25:34;;;;;;;6.45;2.40;;;10.30;99.90;;;;;;4268279;27;20047;-65
2023/12/23 05:27:36;;;;;;;8.48;1.92;;;10.30;99.90;;;;;;4267465;27;20054;-66
2023/12/23 05:29:38;;;;;;;12.77;3.28;;;10.30;99.90;;;;;;4267405;27;20043;-66
2023/12/23 05:31:40;;;;;;;7.85;3.55;;;10.30;99.90;;;;;;4266553;27;20048;-65
2023/12/23 05:33:42;;;;;;;8.32;4.05;;;10.30;99.90;;;;;;4267636;27;20421;-66
2023/12/23 05:35:45;;;;;;;7.85;2.38;;;10.30;99.90;;;;;;4268401;27;20077;-67
2023/12/23 05:37:48;;;;;;;7.43;1.65;;;10.30;99.90;;;;;;4267894;27;20051;-66
2023/12/23 05:39:50;;;;;;;6.00;1.80;;;10.30;99.90;;;;;;4267557;27;20053;-65
2023/12/23 05:41:52;;;;;;;8.75;4.13;;;10.30;99.90;;;;;;4268009;27;20051;-69
2023/12/23 05:43:54;;;;;;;6.18;1.85;;;10.20;99.90;;;;;;4249956;27;20121;-66
2023/12/23 05:45:56;;;;;;;6.95;1.70;;;10.30;99.90;;;;;;4266785;27;20043;-67
2023/12/23 05:47:59;;;;;;;10.35;3.05;;;10.20;99.90;;;;;;4267309;27;20058;-65
2023/12/23 05:50:02;;;;;;;6.53;1.70;;;10.30;99.90;;;;;;4267442;27;20043;-65
2023/12/23 05:52:04;;;;;;;8.18;1.45;;;10.20;99.90;;;;;;4267946;27;20133;-68
2023/12/23 05:54:07;;;;;;;7.72;2.13;;;10.30;99.90;;;;;;4267880;27;20054;-65
2023/12/23 05:56:10;;;;;;;13.00;2.42;;;10.20;99.90;;;;;;4266764;27;20038;-65
2023/12/23 05:58:12;;;;;;;4.80;1.52;;;10.20;99.90;;;;;;4267135;27;20588;-65
2023/12/23 06:00:15;;;;;;;12.18;1.75;;;10.20;99.90;;;;;;4267068;27;20046;-65
2023/12/23 06:02:17;;;;;;;5.18;1.30;;;10.20;99.90;;;;;;4266788;27;20055;-65
2023/12/23 06:04:19;;;;;;;7.50;2.10;;;10.20;99.90;;;;;;4266528;27;20091;-65
2023/12/23 06:06:21;;;;;;;11.98;2.17;;;10.30;99.90;;;;;;4266273;27;20138;-65
2023/12/23 06:08:23;;;;;;;9.10;2.10;;;10.30;99.90;;;;;;4266634;27;20447;-64
2023/12/23 06:10:27;;;;;;;6.38;1.50;;;10.20;99.90;;;;;;4266728;27;20452;-65
2023/12/23 06:12:29;;;;;;;11.75;1.98;;;10.20;99.90;;;;;;4266544;27;20543;-64
2023/12/23 06:14:31;;;;;;;7.85;1.63;;;10.30;99.90;;;;;;4267312;27;20074;-66
2023/12/23 06:16:38;;;;;;;7.95;1.38;;;10.20;99.90;;;;;;4266535;27;20053;-64
2023/12/23 06:18:40;;;;;;;11.48;1.83;;;10.20;99.90;;;;;;4266797;27;20039;-65
2023/12/23 06:20:43;;;;;;;7.30;1.85;;;10.20;99.90;;;;;;4266339;27;20111;-64
2023/12/23 06:22:45;;;;;;;11.43;2.25;;;10.30;99.90;;;;;;4266548;27;20126;-65
2023/12/23 06:24:47;;;;;;;8.00;1.58;;;10.30;99.90;;;;;;4266618;27;20126;-65
2023/12/23 06:26:50;;;;;;;7.30;1.90;;;10.30;99.90;;;;;;4267643;27;20070;-67
2023/12/23 06:28:52;;;;;;;6.95;1.50;;;10.20;99.90;;;;;;4267180;27;20060;-65
2023/12/23 06:30:54;;;;;;;7.28;1.30;;;10.30;99.90;;;;;;4266696;27;20134;-64
2023/12/23 06:32:57;;;;;;;10.43;2.20;;;10.30;99.90;;;;;;4248249;27;20043;-65
2023/12/23 06:34:59;;;;;;;6.38;1.80;;;10.40;99.90;;;;;;4266582;27;20078;-64
2023/12/23 06:37:01;;;;;;;8.20;1.80;;;10.30;99.90;;;;;;4265880;27;20051;-64
2023/12/23 06:39:03;;;;;;;6.35;1.45;;;10.30;99.90;;;;;;4265388;27;20129;-64
2023/12/23 06:41:05;;;;;;;5.65;1.80;;;10.30;99.90;;;;;;4265676;27;20042;-65
2023/12/23 06:43:09;;;;;;;5.38;1.42;;;10.30;99.90;;;;;;4264140;27;20038;-64
2023/12/23 06:45:31;;;;;;;13.95;1.85;;;10.30;99.90;;;;;;4265298;27;20074;-65
2023/12/23 06:47:33;;;;;;;9.32;2.10;;;10.30;99.90;;;;;;4265230;27;20129;-64
2023/12/23 06:49:35;;;;;;;6.70;1.70;;;10.30;99.90;;;;;;4265211;27;20142;-64
2023/12/23 06:51:37;;;;;;;7.68;1.70;;;10.40;99.90;;;;;;4265105;27;20066;-64
2023/12/23 06:53:39;;;;;;;8.85;1.80;;;10.40;99.90;;;;;;4265414;27;20099;-65
2023/12/23 06:55:41;;;;;;;8.82;1.70;;;10.40;99.90;;;;;;4265136;27;20043;-65
2023/12/23 06:57:44;;;;;;;8.05;1.50;;;10.40;99.90;;;;;;4264821;27;20454;-64
2023/12/23 06:59:47;;;;;;;7.53;1.25;;;10.40;99.90;;;;;;4265183;27;20137;-65
2023/12/23 07:01:49;;;;;;;8.43;1.80;;;10.40;99.90;;;;;;4265147;27;20126;-65
2023/12/23 07:03:51;;;;;;;6.35;1.48;;;10.40;99.90;;;;;;4265226;27;20145;-65
2023/12/23 07:05:55;;;;;;;4.88;1.77;;;10.40;99.90;;;;;;4264948;27;20125;-64
2023/12/23 07:07:57;;;;;;;7.25;1.73;;;10.40;99.90;;;;;;4265059;27;20043;-65
2023/12/23 07:09:59;;;;;;;7.38;1.50;;;10.40;99.90;;;;;;4264932;27;20065;-64
2023/12/23 07:12:08;;;;;;;8.73;1.73;;;10.50;99.90;;;;;;4264765;27;20050;-64
2023/12/23 07:14:11;;;;;;;6.47;1.45;;;10.40;99.90;;;;;;4264812;27;20043;-65
2023/12/23 07:16:15;;;;;;;7.50;1.40;;;10.40;99.90;;;;;;4264616;27;20042;-65
2023/12/23 07:18:17;;;;;;;10.35;1.70;;;10.40;99.90;;;;;;4265015;27;20046;-64
2023/12/23 07:20:19;;;;;;;7.97;1.70;;;10.40;99.90;;;;;;4264658;27;20497;-64
2023/12/23 07:22:21;;;;;;;11.60;1.98;;;10.40;99.90;;;;;;4264586;27;20117;-64
2023/12/23 07:24:23;;;;;;;5.15;1.73;;;10.40;99.90;;;;;;4264530;27;20049;-64
2023/12/23 07:26:25;;;;;;;4.93;1.30;;;10.40;99.90;;;;;;4264481;27;20055;-64
2023/12/23 07:28:28;;;;;;;5.18;1.73;;;10.40;99.90;;;;;;4264594;27;20049;-63
2023/12/23 07:30:30;;;;;;;6.53;1.95;;;10.50;99.90;;;;;;4264539;27;20126;-64
2023/12/23 07:32:33;;;;;;;7.95;1.55;;;10.40;99.90;;;;;;4264564;27;20074;-65
2023/12/23 07:34:35;;;;;;;10.20;2.20;;;10.40;99.90;;;;;;4264744;27;20039;-64
2023/12/23 07:36:37;;;;;;;6.75;1.50;;;10.40;99.90;;;;;;4264571;27;20409;-64
2023/12/23 07:38:39;;;;;;;5.18;1.67;;;10.40;99.90;;;;;;4265480;27;20533;-64
2023/12/23 07:40:41;;;;;;;11.93;2.03;;;10.40;99.90;;;;;;4264808;27;20042;-64
2023/12/23 07:42:44;;;;;;;10.63;2.00;;;10.40;99.90;;;;;;4265351;27;20130;-64
2023/12/23 07:44:46;;;;;;;9.32;1.83;;;10.40;99.90;;;;;;4265375;27;20046;-64
2023/12/23 07:46:48;;;;;;;5.93;1.48;;;10.40;99.90;;;;;;4265185;27;20545;-64
2023/12/23 07:48:51;;;;;;;12.02;2.00;;;10.40;99.90;;;;;;4265186;27;20042;-64
2023/12/23 07:50:53;;;;;;;6.50;1.80;;;10.40;99.90;;;;;;4265013;27;20057;-64
2023/12/23 07:52:55;;;;;;;7.78;1.27;;;10.40;99.90;;;;;;4264989;27;20050;-65
2023/12/23 07:54:58;;;;;;;6.38;1.52;;;10.40;99.90;;;;;;4264707;27;20095;-65
2023/12/23 07:57:00;;;;;;;12.77;2.58;;;10.40;99.90;;;;;;4264981;27;20516;-64
2023/12/23 07:59:02;;;;;;;9.40;1.73;;;10.40;99.90;;;;;;4265228;27;20486;-64
2023/12/23 08:01:04;;;;;;;7.70;1.65;;;10.50;99.90;;;;;;4264866;27;20043;-64
2023/12/23 08:03:06;;;;;;;8.10;1.67;;;10.50;99.90;;;;;;4264947;27;20058;-65
2023/12/23 08:05:10;;;;;;;7.68;1.90;;;10.50;99.90;;;;;;4264910;27;20043;-64
2023/12/23 08:07:15;;;;;;;14.93;2.85;;;10.50;99.90;;;;;;4264896;27;20046;-64
2023/12/23 08:09:17;;;;;;;8.50;2.08;;;10.50;99.90;;;;;;4264932;27;20048;-64
2023/12/23 08:11:19;;;;;;;9.73;2.28;;;10.50;99.90;;;;;;4264989;27;20541;-64
2023/12/23 08:13:21;;;;;;;6.50;1.63;;;10.50;99.90;;;;;;4246561;28;20058;-67
2023/12/23 08:15:23;;;;;;;8.65;2.58;;;10.50;99.90;;;;;;4264666;27;20125;-65
2023/12/23 08:17:25;;;;;;;7.30;1.90;;;10.60;99.90;;;;;;4265002;27;20043;-65
2023/12/23 08:19:27;;;;;;;6.15;1.67;;;10.60;99.90;;;;;;4266142;27;20043;-65
2023/12/23 08:21:31;;;;;;;11.93;1.65;;;10.50;99.90;;;;;;4266033;27;20134;-64
2023/12/23 08:23:33;;;;;;;8.88;2.20;;;10.50;99.90;;;;;;4265074;27;20042;-64
2023/12/23 08:25:35;;;;;;;6.03;1.77;;;10.60;99.90;;;;;;4264578;27;20035;-65
2023/12/23 08:27:38;;;;;;;9.70;1.95;;;10.60;99.90;;;;;;4264697;27;20042;-65
2023/12/23 08:29:40;;;;;;;7.53;1.50;;;10.60;99.90;;;;;;4265100;27;20436;-65
2023/12/23 08:31:43;;;;;;;10.20;1.75;;;10.60;99.90;;;;;;4264578;27;20454;-65
2023/12/23 08:33:45;;;;;;;9.07;1.83;;;10.50;99.90;;;;;;4264860;27;20047;-65
2023/12/23 08:35:47;;;;;;;6.35;1.63;;;10.60;99.90;;;;;;4264857;27;20117;-65
2023/12/23 08:37:51;;;;;;;9.98;1.88;;;10.50;99.90;;;;;;4264579;27;20046;-64
2023/12/23 08:39:55;;;;;;;9.15;2.00;;;10.50;99.90;;;;;;4264561;27;20050;-65
2023/12/23 08:41:57;;;;;;;8.68;2.00;;;10.50;99.90;;;;;;4264604;27;20126;-65
2023/12/23 08:43:59;;;;;;;8.82;2.15;;;10.50;99.90;;;;;;4264618;27;20401;-65
2023/12/23 08:46:01;;;;;;;6.07;1.85;;;10.60;99.90;;;;;;4264560;27;20046;-64
2023/12/23 08:48:04;;;;;;;9.82;2.22;;;10.60;99.90;;;;;;4264896;27;20074;-65
2023/12/23 08:50:06;;;;;;;10.63;1.77;;;10.60;99.90;;;;;;4264667;27;20415;-66
2023/12/23 08:52:09;;;;;;;6.25;1.60;;;10.60;99.90;;;;;;4264421;27;20042;-65
2023/12/23 08:54:12;;;;;;;8.32;1.92;;;10.70;99.90;;;;;;4264435;27;20118;-66
2023/12/23 08:56:15;;;;;;;9.10;2.10;;;10.60;99.90;;;;;;4264775;27;20042;-66
2023/12/23 08:58:18;;;;;;;12.25;2.22;;;10.60;99.90;;;;;;4264913;27;20456;-65
2023/12/23 09:00:20;;;;;;;11.00;2.67;;;10.60;99.90;;;;;;4264438;27;20061;-65
2023/12/23 09:02:25;;;;;;;19.05;2.33;;;10.60;99.90;;;;;;4264373;27;20122;-65
2023/12/23 09:04:29;;;;;;;9.18;2.72;;;10.70;99.90;;;;;;4264538;27;20125;-65
2023/12/23 09:06:31;;;;;;;11.35;2.72;;;10.60;99.90;;;;;;4265747;27;20053;-65
2023/12/23 09:08:34;;;;;;;12.68;2.83;;;10.70;99.90;;;;;;4267299;27;20039;-64
2023/12/23 09:10:38;;;;;;;8.68;1.88;;;10.60;99.90;;;;;;4267512;27;20126;-65
2023/12/23 09:12:40;;;;;;;12.60;1.83;;;10.60;99.90;;;;;;4267677;27;20072;-65
2023/12/23 09:14:42;;;;;;;7.93;2.13;;;10.70;99.90;;;;;;4267553;27;20043;-66
2023/12/23 09:16:44;;;;;;;12.02;1.98;;;10.70;99.90;;;;;;4267717;27;20129;-65
2023/12/23 09:18:46;;;;;;;9.55;1.95;;;10.70;99.90;;;;;;4249087;27;20401;-65
2023/12/23 09:20:48;;;;;;;10.38;2.03;;;10.80;99.90;;;;;;4267392;27;20042;-68
2023/12/23 09:22:50;;;;;;;13.90;2.28;;;10.70;99.90;;;;;;4266989;27;20091;-65
2023/12/23 09:24:52;;;;;;;8.02;2.03;;;10.70;99.90;;;;;;4267553;27;20103;-65
2023/12/23 09:26:56;;;;;;;13.55;2.38;;;10.80;99.90;;;;;;4267264;27;20463;-66
2023/12/23 09:28:58;;;;;;;12.25;1.85;;;10.90;99.90;;;;;;4267161;27;20070;-65
2023/12/23 09:31:00;;;;;;;10.55;2.40;;;10.90;99.90;;;;;;4267303;27;20118;-65
2023/12/23 09:33:05;;;;;;;14.10;2.53;;;11.00;99.90;;;;;;4267384;27;20073;-65
2023/12/23 09:35:09;;;;;;;18.27;3.15;;;11.00;99.90;;;;;;4267214;27;20064;-65
2023/12/23 09:37:11;;;;;;;10.75;2.53;;;11.00;99.90;;;;;;4266779;27;20054;-66
2023/12/23 09:39:13;;;;;;;9.63;3.13;;;11.00;99.90;;;;;;4248853;27;20046;-65
2023/12/23 09:41:15;;;;;;;7.50;2.70;;;11.00;99.90;;;;;;4266850;27;20046;-65
2023/12/23 09:43:21;;;;;;;13.90;4.32;;;11.00;99.90;;;;;;4266894;27;20047;-64
2023/12/23 09:45:25;;;;;;;6.88;2.90;;;11.00;99.90;;;;;;4267032;27;20038;-66
2023/12/23 09:47:27;;;;;;;8.43;1.77;;;11.10;99.90;;;;;;4267036;27;20430;-66
2023/12/23 09:49:29;;;;;;;8.55;2.13;;;11.10;99.90;;;;;;4267143;27;20614;-66
2023/12/23 09:51:32;;;;;;;8.38;2.03;;;11.20;99.90;;;;;;4266364;27;20070;-66
2023/12/23 09:53:37;;;;;;;6.25;1.48;;;11.20;99.90;;;;;;4266890;27;20232;-65
2023/12/23 09:55:40;;;;;;;9.00;1.90;;;11.20;99.90;;;;;;4267015;27;20122;-69
2023/12/23 09:57:43;;;;;;;9.88;1.88;;;11.30;99.90;;;;;;4266680;27;20133;-66
2023/12/23 09:59:49;;;;;;;10.55;2.00;;;11.30;99.90;;;;;;4266691;27;20051;-67
2023/12/23 10:01:52;;;;;;;14.82;4.47;;;11.30;99.90;;;;;;4264347;27;20045;-66
2023/12/23 10:03:55;;;;;;;13.93;3.45;;;11.30;99.90;;;;;;4274290;27;20149;-67
2023/12/23 10:06:01;;;;;;;8.75;2.05;;;11.30;99.90;;;;;;4283698;27;20045;-66
2023/12/23 10:08:04;;;;;;;11.18;2.40;;;11.40;99.90;;;;;;4284019;27;20491;-66
2023/12/23 10:10:07;;;;;;;7.90;2.53;;;11.40;99.90;;;;;;4273144;27;20115;-67
2023/12/23 10:12:10;;;;;;;10.65;2.28;;;11.50;99.90;;;;;;4247760;27;20039;-67
2023/12/23 10:14:12;;;;;;;12.25;3.45;;;11.50;99.90;;;;;;4266326;27;20377;-67
2023/12/23 10:16:15;;;;;;;9.80;3.25;;;11.60;99.90;;;;;;4254167;27;20111;-67
2023/12/23 10:18:18;;;;;;;8.23;2.55;;;11.60;99.90;;;;;;4261448;27;20057;-66
2023/12/23 10:20:23;;;;;;;13.07;2.80;;;11.60;99.90;;;;;;4268415;27;20043;-67
2023/12/23 10:22:26;;;;;;;10.98;2.50;;;11.60;99.90;;;;;;4265733;27;20047;-67
2023/12/23 10:24:28;;;;;;;60.13;10.93;;;11.70;99.90;;;;;;4265648;27;20081;-67
2023/12/23 10:26:30;;;;;;;22.08;4.18;;;11.70;99.90;;;;;;4265630;27;20049;-66
2023/12/23 10:28:35;;;;;;;22.30;3.55;;;11.70;99.90;;;;;;4265347;27;20074;-70
2023/12/23 10:30:41;;;;;;;19.23;3.92;;;11.80;99.90;;;;;;4280393;27;20667;-65
2023/12/23 10:32:47;;;;;;;15.80;3.63;;;11.70;99.90;;;;;;4282883;27;20053;-67
2023/12/23 10:34:54;;;;;;;14.52;3.72;;;11.80;99.90;;;;;;4282341;27;20042;-66
2023/12/23 10:36:58;;;;;;;11.73;2.83;;;11.80;99.90;;;;;;4265090;27;20058;-66